Time;durP1;ratioP1;P1;durP2;ratioP2;P2;SDS_P1;SDS_P2;PMS_P1;PMS_P2;Temp;Humidity;BMP_temperature;BMP_pressure;BME280_temperature;BME280_humidity;BME280_pressure;Samples;Min_cycle;Max_cycle;Signal;HPM_P1;HPM_P2
2023/09/05 00:02:24;;;;;;;16.67;12.43;;;23.40;59.10;;;;;;5054145;28;20945;-69
2023/09/05 00:04:53;;;;;;;13.73;11.57;;;23.30;59.00;;;;;;5054094;28;20203;-70
2023/09/05 00:07:19;;;;;;;16.90;11.60;;;23.30;59.00;;;;;;5035934;28;20425;-69
2023/09/05 00:09:44;;;;;;;15.83;12.23;;;23.40;59.10;;;;;;5053976;28;20971;-69
2023/09/05 00:12:10;;;;;;;15.37;11.40;;;23.40;59.10;;;;;;5053955;28;20175;-69
2023/09/05 00:14:36;;;;;;;13.30;11.30;;;23.40;59.10;;;;;;5053928;28;20934;-69
2023/09/05 00:17:02;;;;;;;15.63;12.60;;;23.40;59.10;;;;;;5053742;28;20194;-70
2023/09/05 00:19:28;;;;;;;14.13;11.27;;;23.30;59.00;;;;;;5053801;28;20421;-69
2023/09/05 00:21:53;;;;;;;15.20;12.30;;;23.40;59.10;;;;;;5053733;28;20417;-70
2023/09/05 00:24:36;;;;;;;15.13;11.63;;;23.40;59.10;;;;;;5053695;28;20175;-69
2023/09/05 00:27:03;;;;;;;15.40;11.60;;;23.30;59.00;;;;;;5053936;28;20706;-70
2023/09/05 00:29:30;;;;;;;14.77;10.93;;;23.30;59.00;;;;;;5053589;28;20943;-70
2023/09/05 00:32:00;;;;;;;16.00;11.27;;;23.40;59.10;;;;;;5053480;28;20453;-70
2023/09/05 00:34:30;;;;;;;13.97;10.83;;;23.30;59.00;;;;;;5053449;28;20410;-70
2023/09/05 00:36:56;;;;;;;14.67;10.53;;;23.40;59.10;;;;;;5053483;28;20421;-69
2023/09/05 00:39:22;;;;;;;12.37;11.07;;;23.30;59.00;;;;;;5053672;28;20490;-70
2023/09/05 00:41:48;;;;;;;14.77;11.20;;;23.40;59.10;;;;;;5053385;28;20498;-69
2023/09/05 00:44:14;;;;;;;17.40;11.90;;;23.30;59.10;;;;;;5053374;28;20192;-71
2023/09/05 00:46:42;;;;;;;15.40;11.00;;;23.30;59.00;;;;;;5053216;28;20441;-70
2023/09/05 00:49:10;;;;;;;17.20;11.97;;;23.30;59.00;;;;;;5053245;28;20410;-71
2023/09/05 00:51:37;;;;;;;12.80;11.33;;;23.30;59.00;;;;;;5053151;28;20457;-69
2023/09/05 00:54:04;;;;;;;13.00;10.17;;;23.40;59.10;;;;;;5053404;28;20413;-69
2023/09/05 00:56:30;;;;;;;12.50;10.23;;;23.40;59.10;;;;;;5051920;28;20525;-69
2023/09/05 00:58:56;;;;;;;13.90;10.47;;;23.30;59.00;;;;;;5053309;28;20480;-70
2023/09/05 01:01:22;;;;;;;12.67;10.50;;;23.40;59.10;;;;;;5051641;28;20417;-70
2023/09/05 01:03:48;;;;;;;14.30;10.30;;;23.40;59.10;;;;;;5053040;28;20501;-69
2023/09/05 01:06:26;;;;;;;12.33;10.50;;;23.40;59.10;;;;;;5052844;28;20433;-69
2023/09/05 01:09:27;;;;;;;11.80;9.87;;;23.30;59.00;;;;;;5053165;28;20166;-69
2023/09/05 01:11:54;;;;;;;13.87;10.67;;;23.40;59.10;;;;;;5052708;28;20453;-69
2023/09/05 01:14:20;;;;;;;13.33;10.60;;;23.30;59.10;;;;;;5052754;28;20406;-69
2023/09/05 01:16:46;;;;;;;13.80;10.20;;;23.30;59.00;;;;;;5052681;28;20433;-70
2023/09/05 01:19:15;;;;;;;11.80;9.97;;;23.30;59.00;;;;;;5052678;28;20590;-69
2023/09/05 01:21:55;;;;;;;14.77;11.07;;;23.30;59.10;;;;;;5052655;28;20442;-70
2023/09/05 01:24:21;;;;;;;10.97;9.37;;;23.30;59.00;;;;;;5052591;28;20404;-69
2023/09/05 01:26:52;;;;;;;12.50;9.53;;;23.30;59.00;;;;;;5052366;28;20823;-69
2023/09/05 01:29:29;;;;;;;14.07;10.23;;;23.30;59.10;;;;;;5052576;28;20420;-70
2023/09/05 01:31:59;;;;;;;11.27;9.00;;;23.30;59.10;;;;;;5052673;28;20968;-70
2023/09/05 01:34:25;;;;;;;10.50;9.33;;;23.30;59.10;;;;;;5052406;28;20401;-69
2023/09/05 01:36:51;;;;;;;12.83;9.20;;;23.30;59.10;;;;;;5052277;28;20810;-69
2023/09/05 01:39:17;;;;;;;12.20;9.40;;;23.30;59.10;;;;;;5034467;28;20409;-70
2023/09/05 01:41:42;;;;;;;15.07;10.60;;;23.30;59.00;;;;;;5052233;28;20409;-70
2023/09/05 01:44:08;;;;;;;11.10;9.47;;;23.30;59.00;;;;;;5052480;28;20229;-69
2023/09/05 01:46:34;;;;;;;16.00;9.93;;;23.30;59.10;;;;;;5052112;28;20198;-69
2023/09/05 01:48:59;;;;;;;13.57;10.10;;;23.30;59.00;;;;;;5052125;28;20589;-70
2023/09/05 01:51:25;;;;;;;12.47;10.13;;;23.40;59.10;;;;;;5051971;28;20241;-70
2023/09/05 01:53:51;;;;;;;10.90;8.77;;;23.30;59.10;;;;;;5052301;28;20167;-69
2023/09/05 01:56:16;;;;;;;11.47;9.80;;;23.30;59.10;;;;;;5051918;28;20183;-69
2023/09/05 01:58:42;;;;;;;11.97;9.63;;;23.30;59.10;;;;;;5051943;28;20171;-70
2023/09/05 02:01:08;;;;;;;11.90;8.90;;;23.30;59.10;;;;;;5051868;28;20289;-70
2023/09/05 02:03:33;;;;;;;11.77;8.50;;;23.30;59.00;;;;;;5051869;28;20256;-69
2023/09/05 02:05:59;;;;;;;11.80;9.27;;;23.30;59.10;;;;;;5051519;28;20202;-69
2023/09/05 02:08:25;;;;;;;12.50;9.40;;;23.30;59.10;;;;;;5051754;28;20722;-69
2023/09/05 02:10:50;;;;;;;12.07;8.17;;;23.30;59.10;;;;;;5051564;28;20294;-70
2023/09/05 02:13:18;;;;;;;10.77;8.30;;;23.30;59.10;;;;;;5051688;28;20167;-69
2023/09/05 02:15:44;;;;;;;10.37;8.80;;;23.30;59.00;;;;;;5051564;28;20689;-70
2023/09/05 02:18:13;;;;;;;10.67;8.83;;;23.30;59.10;;;;;;5051480;28;20414;-69
2023/09/05 02:20:42;;;;;;;12.20;9.40;;;23.30;59.00;;;;;;5051568;28;20206;-69
2023/09/05 02:23:08;;;;;;;8.90;7.97;;;23.30;59.10;;;;;;5033513;28;20471;-70
2023/09/05 02:25:33;;;;;;;10.20;8.30;;;23.30;59.10;;;;;;5051420;28;20413;-70
2023/09/05 02:27:59;;;;;;;10.77;7.83;;;23.30;59.10;;;;;;5033336;28;20292;-69
2023/09/05 02:30:25;;;;;;;10.97;8.27;;;23.30;59.10;;;;;;5051547;28;20207;-70
2023/09/05 02:32:55;;;;;;;10.03;8.37;;;23.30;59.00;;;;;;5051382;28;20216;-70
2023/09/05 02:35:27;;;;;;;10.00;8.87;;;23.30;59.10;;;;;;5051296;28;20421;-69
2023/09/05 02:37:54;;;;;;;8.40;7.37;;;23.30;59.00;;;;;;5051434;28;20425;-70
2023/09/05 02:40:20;;;;;;;11.80;8.33;;;23.30;59.10;;;;;;5051119;28;20412;-70
2023/09/05 02:42:46;;;;;;;11.53;8.80;;;23.30;59.00;;;;;;5051124;28;20423;-69
2023/09/05 02:45:12;;;;;;;9.77;8.53;;;23.30;59.10;;;;;;5051129;28;20847;-68
2023/09/05 02:47:38;;;;;;;11.57;8.50;;;23.30;59.10;;;;;;5051238;28;20710;-70
2023/09/05 02:50:05;;;;;;;9.60;7.53;;;23.30;59.10;;;;;;5050970;28;20965;-69
2023/09/05 02:52:31;;;;;;;11.27;8.80;;;23.30;59.00;;;;;;5051033;28;20424;-69
2023/09/05 02:54:57;;;;;;;10.00;7.73;;;23.30;59.10;;;;;;5051314;28;20449;-70
2023/09/05 02:57:23;;;;;;;9.60;8.00;;;23.30;59.10;;;;;;5050936;28;20449;-70
2023/09/05 02:59:53;;;;;;;9.80;7.93;;;23.30;59.00;;;;;;5050875;28;20179;-70
2023/09/05 03:02:19;;;;;;;9.17;7.73;;;23.30;59.00;;;;;;5050916;28;21072;-70
2023/09/05 03:04:45;;;;;;;10.40;9.00;;;23.30;59.10;;;;;;5051135;28;20501;-70
2023/09/05 03:07:10;;;;;;;9.57;7.57;;;23.30;59.00;;;;;;5033252;28;20500;-69
2023/09/05 03:09:37;;;;;;;9.10;7.37;;;23.30;59.10;;;;;;5051279;28;20182;-69
2023/09/05 03:12:05;;;;;;;9.77;8.07;;;23.30;59.10;;;;;;5051076;28;20241;-70
2023/09/05 03:14:30;;;;;;;9.97;8.20;;;23.30;59.10;;;;;;5033313;28;21105;-68
2023/09/05 03:16:57;;;;;;;12.70;9.00;;;23.30;59.10;;;;;;5051014;28;20417;-70
2023/09/05 03:19:22;;;;;;;12.83;8.50;;;23.30;59.10;;;;;;5056531;28;20167;-69
2023/09/05 03:21:49;;;;;;;11.33;7.77;;;23.30;59.10;;;;;;5057711;28;20912;-70
2023/09/05 03:24:17;;;;;;;8.90;7.77;;;23.30;59.10;;;;;;5057798;28;20213;-70
2023/09/05 03:26:45;;;;;;;10.27;6.90;;;23.30;59.10;;;;;;5057836;28;20568;-70
2023/09/05 03:29:10;;;;;;;9.83;6.80;;;23.30;59.60;;;;;;5057806;28;20462;-68
2023/09/05 03:31:36;;;;;;;10.50;7.23;;;23.30;59.10;;;;;;5057703;28;20516;-68
2023/09/05 03:34:02;;;;;;;10.97;8.57;;;23.30;59.10;;;;;;5039749;28;20574;-70
2023/09/05 03:36:28;;;;;;;9.23;7.50;;;23.30;59.10;;;;;;5057579;28;20186;-70
2023/09/05 03:38:54;;;;;;;8.90;6.90;;;23.30;59.10;;;;;;5057451;28;20420;-70
2023/09/05 03:41:19;;;;;;;8.17;6.40;;;23.30;59.10;;;;;;5039212;28;20253;-69
2023/09/05 03:43:45;;;;;;;8.40;7.50;;;23.30;59.10;;;;;;5057065;28;20896;-70
2023/09/05 03:46:12;;;;;;;7.50;6.63;;;23.30;59.10;;;;;;5057348;28;20222;-69
2023/09/05 03:48:37;;;;;;;9.20;7.17;;;23.30;59.10;;;;;;5057094;28;20167;-70
2023/09/05 03:51:03;;;;;;;8.17;6.33;;;23.30;59.10;;;;;;5057035;28;20448;-69
2023/09/05 03:53:28;;;;;;;8.53;7.70;;;23.30;59.10;;;;;;5057382;28;20171;-70
2023/09/05 03:55:54;;;;;;;10.50;7.27;;;23.30;59.10;;;;;;5056982;28;20248;-69
2023/09/05 03:58:20;;;;;;;8.10;7.27;;;23.30;59.10;;;;;;5057013;28;20643;-69
2023/09/05 04:00:45;;;;;;;8.13;7.33;;;23.30;59.10;;;;;;5057076;28;20175;-70
2023/09/05 04:03:12;;;;;;;8.50;7.00;;;23.30;59.10;;;;;;5038946;28;20592;-70
2023/09/05 04:05:38;;;;;;;10.50;7.67;;;23.30;59.10;;;;;;5056942;28;20198;-71
2023/09/05 04:08:06;;;;;;;8.33;6.40;;;23.30;59.10;;;;;;5056902;28;20457;-69
2023/09/05 04:10:32;;;;;;;8.47;6.93;;;23.30;59.10;;;;;;5056869;28;20210;-70
2023/09/05 04:12:58;;;;;;;8.83;6.60;;;23.30;59.10;;;;;;5056910;28;20409;-70
2023/09/05 04:15:23;;;;;;;7.67;6.87;;;23.30;59.10;;;;;;5056915;28;20197;-69
2023/09/05 04:17:52;;;;;;;8.27;6.90;;;23.30;59.10;;;;;;5056828;28;20186;-69
2023/09/05 04:20:18;;;;;;;7.93;6.37;;;23.30;59.10;;;;;;5056902;28;20175;-70
2023/09/05 04:22:44;;;;;;;8.47;6.97;;;23.30;59.10;;;;;;5056815;28;20401;-70
2023/09/05 04:25:10;;;;;;;10.27;7.20;;;23.30;59.10;;;;;;5057026;28;20427;-70
2023/09/05 04:27:36;;;;;;;8.17;6.40;;;23.30;59.10;;;;;;5056605;28;20656;-69
2023/09/05 04:30:03;;;;;;;7.00;6.10;;;23.30;59.10;;;;;;5055524;28;20175;-70
2023/09/05 04:32:32;;;;;;;9.73;6.73;;;23.30;59.10;;;;;;5053572;28;20413;-70
2023/09/05 04:35:00;;;;;;;7.57;6.47;;;23.30;59.10;;;;;;5053506;28;20501;-70
2023/09/05 04:37:26;;;;;;;7.80;6.47;;;23.30;59.10;;;;;;5053428;28;20436;-69
2023/09/05 04:39:52;;;;;;;8.67;6.70;;;23.30;59.10;;;;;;5053386;28;20414;-70
2023/09/05 04:42:17;;;;;;;8.13;6.90;;;23.30;59.10;;;;;;5053396;28;20214;-69
2023/09/05 04:44:43;;;;;;;7.93;6.00;;;23.30;59.10;;;;;;5035297;28;20441;-70
2023/09/05 04:47:26;;;;;;;8.00;6.50;;;23.30;59.10;;;;;;5035222;28;20217;-68
2023/09/05 04:49:59;;;;;;;7.37;6.10;;;23.30;59.00;;;;;;5053155;28;20538;-70
2023/09/05 04:52:27;;;;;;;7.53;6.83;;;23.30;59.10;;;;;;5053483;28;20414;-69
2023/09/05 04:54:55;;;;;;;7.57;6.70;;;23.30;59.10;;;;;;5053090;28;20404;-70
2023/09/05 04:57:20;;;;;;;7.60;6.17;;;23.30;59.10;;;;;;5053137;28;20468;-69
2023/09/05 04:59:49;;;;;;;8.30;6.33;;;23.30;59.10;;;;;;5053084;28;20452;-70
2023/09/05 05:02:16;;;;;;;7.07;6.30;;;23.30;59.10;;;;;;5053298;28;20187;-70
2023/09/05 05:04:45;;;;;;;9.43;6.60;;;23.30;59.10;;;;;;5035006;28;20410;-68
2023/09/05 05:07:11;;;;;;;8.67;6.20;;;23.30;59.10;;;;;;5052915;28;20425;-69
2023/09/05 05:09:39;;;;;;;7.97;6.10;;;23.30;59.10;;;;;;5053176;28;20421;-70
2023/09/05 05:12:05;;;;;;;7.80;6.40;;;23.30;59.10;;;;;;5053329;28;20457;-69
2023/09/05 05:14:30;;;;;;;7.43;5.77;;;23.30;59.10;;;;;;5052836;28;20515;-69
2023/09/05 05:16:56;;;;;;;7.87;6.87;;;23.30;59.10;;;;;;5052935;28;20520;-69
2023/09/05 05:19:21;;;;;;;6.70;5.90;;;23.30;59.10;;;;;;5052759;28;20217;-69
2023/09/05 05:21:48;;;;;;;6.03;5.43;;;23.30;59.10;;;;;;5052792;28;20177;-68
2023/09/05 05:24:14;;;;;;;6.73;5.73;;;23.30;59.10;;;;;;5052623;28;20258;-69
2023/09/05 05:26:41;;;;;;;8.50;6.87;;;23.30;59.10;;;;;;5052419;28;20457;-69
2023/09/05 05:29:06;;;;;;;7.73;6.50;;;23.30;59.10;;;;;;5052489;28;20410;-70
2023/09/05 05:31:33;;;;;;;6.67;6.07;;;23.30;59.10;;;;;;5052375;28;20441;-70
2023/09/05 05:34:02;;;;;;;7.43;5.97;;;23.30;59.10;;;;;;5052683;28;20655;-69
2023/09/05 05:36:29;;;;;;;6.57;5.80;;;23.30;59.10;;;;;;5052344;28;20437;-69
2023/09/05 05:38:56;;;;;;;8.00;5.90;;;23.30;59.20;;;;;;5052541;28;20420;-69
2023/09/05 05:41:21;;;;;;;7.53;6.10;;;23.30;59.10;;;;;;5051729;28;20949;-69
2023/09/05 05:43:47;;;;;;;6.80;5.40;;;23.30;59.20;;;;;;5052274;28;20484;-68
2023/09/05 05:46:14;;;;;;;7.80;5.80;;;23.30;59.20;;;;;;5052203;28;20202;-69
2023/09/05 05:48:40;;;;;;;6.90;5.43;;;23.30;59.20;;;;;;5052244;28;20418;-69
2023/09/05 05:51:06;;;;;;;6.77;5.60;;;23.30;59.20;;;;;;5052060;28;20973;-69
2023/09/05 05:53:32;;;;;;;7.00;5.10;;;23.30;59.10;;;;;;5052282;28;20410;-69
2023/09/05 05:55:58;;;;;;;6.60;5.70;;;23.30;59.10;;;;;;5052163;28;20892;-69
2023/09/05 05:58:24;;;;;;;6.10;5.07;;;23.30;59.10;;;;;;5052064;28;20171;-69
2023/09/05 06:00:52;;;;;;;7.13;6.00;;;23.30;59.10;;;;;;5051918;28;20463;-69
2023/09/05 06:03:18;;;;;;;8.13;5.43;;;23.30;59.10;;;;;;5051785;28;20189;-70
2023/09/05 06:05:45;;;;;;;6.00;4.80;;;23.30;59.10;;;;;;5051732;28;20898;-70
2023/09/05 06:08:11;;;;;;;8.53;5.97;;;23.30;59.20;;;;;;5051754;28;20909;-70
2023/09/05 06:10:36;;;;;;;6.70;5.33;;;23.30;59.20;;;;;;5051616;28;20463;-70
2023/09/05 06:13:04;;;;;;;6.00;5.40;;;23.30;59.10;;;;;;5051864;28;20413;-69
2023/09/05 06:15:30;;;;;;;6.17;5.40;;;23.30;59.10;;;;;;5051622;28;20604;-69
2023/09/05 06:17:56;;;;;;;6.07;5.47;;;23.30;59.10;;;;;;5051507;28;20426;-69
2023/09/05 06:20:21;;;;;;;6.70;5.20;;;23.30;59.10;;;;;;5051536;28;20924;-68
2023/09/05 06:22:47;;;;;;;7.20;5.30;;;23.30;59.10;;;;;;5051529;28;20605;-69
2023/09/05 06:25:13;;;;;;;6.37;5.33;;;23.30;59.10;;;;;;5051487;28;20178;-69
2023/09/05 06:27:43;;;;;;;6.50;4.90;;;23.30;59.20;;;;;;5033254;28;20963;-70
2023/09/05 06:30:10;;;;;;;6.90;5.70;;;23.30;59.20;;;;;;5051181;28;20179;-70
2023/09/05 06:32:35;;;;;;;6.23;5.27;;;23.30;59.20;;;;;;5051327;28;20415;-70
2023/09/05 06:35:01;;;;;;;7.70;5.50;;;23.30;59.20;;;;;;5051354;28;20485;-69
2023/09/05 06:37:29;;;;;;;7.50;5.63;;;23.30;59.10;;;;;;5051451;28;20252;-69
2023/09/05 06:39:56;;;;;;;6.03;5.43;;;23.30;59.20;;;;;;5051244;28;20170;-69
2023/09/05 06:42:21;;;;;;;5.73;4.90;;;23.30;59.20;;;;;;5051448;28;20413;-70
2023/09/05 06:44:48;;;;;;;6.30;5.10;;;23.30;59.20;;;;;;5051229;28;20455;-70
2023/09/05 06:47:13;;;;;;;6.00;4.63;;;23.30;59.20;;;;;;5051035;28;20621;-69
2023/09/05 06:49:39;;;;;;;5.43;4.67;;;23.30;59.20;;;;;;5051171;28;20410;-69
2023/09/05 06:52:05;;;;;;;5.90;4.80;;;23.30;59.20;;;;;;5050915;28;20233;-70
2023/09/05 06:54:31;;;;;;;5.70;4.83;;;23.30;59.20;;;;;;5032224;28;20182;-69
2023/09/05 06:56:57;;;;;;;5.50;4.50;;;23.30;59.20;;;;;;5050825;28;20194;-70
2023/09/05 06:59:22;;;;;;;6.33;5.27;;;23.30;59.20;;;;;;5050951;28;20171;-70
2023/09/05 07:01:48;;;;;;;5.60;5.07;;;23.30;59.20;;;;;;5050963;28;20189;-69
2023/09/05 07:04:14;;;;;;;5.87;4.93;;;23.30;59.20;;;;;;5051443;28;20178;-69
2023/09/05 07:06:40;;;;;;;5.13;4.07;;;23.30;59.20;;;;;;5050786;28;20254;-69
2023/09/05 07:09:06;;;;;;;6.37;4.73;;;23.30;59.20;;;;;;5050812;28;20189;-70
2023/09/05 07:11:32;;;;;;;5.90;5.00;;;23.30;59.20;;;;;;5050736;28;20502;-70
2023/09/05 07:13:58;;;;;;;6.23;5.20;;;23.30;59.20;;;;;;5050804;28;20412;-69
2023/09/05 07:16:23;;;;;;;5.77;5.20;;;23.30;59.20;;;;;;5050774;28;20516;-70
2023/09/05 07:18:49;;;;;;;5.70;5.20;;;23.30;59.20;;;;;;5050731;28;20553;-69
2023/09/05 07:21:15;;;;;;;6.00;4.93;;;23.30;59.20;;;;;;5050726;28;20182;-68
2023/09/05 07:23:40;;;;;;;6.70;5.07;;;23.30;59.20;;;;;;5050686;28;20178;-69
2023/09/05 07:26:07;;;;;;;5.97;4.93;;;23.30;59.80;;;;;;5032676;28;20199;-70
2023/09/05 07:28:33;;;;;;;5.23;4.03;;;23.30;59.20;;;;;;5050584;28;20179;-69
2023/09/05 07:30:59;;;;;;;5.63;4.40;;;23.30;59.20;;;;;;5050495;28;20496;-69
2023/09/05 07:33:25;;;;;;;6.50;5.00;;;23.30;59.20;;;;;;5050849;28;20492;-69
2023/09/05 07:35:50;;;;;;;5.37;4.80;;;23.30;59.20;;;;;;5050392;28;20970;-69
2023/09/05 07:38:17;;;;;;;5.80;4.77;;;23.40;59.80;;;;;;5050546;28;20259;-69
2023/09/05 07:40:43;;;;;;;4.90;4.40;;;23.30;59.20;;;;;;5050799;28;20640;-68
2023/09/05 07:43:08;;;;;;;5.67;3.90;;;23.40;59.30;;;;;;5050443;28;20902;-70
2023/09/05 07:45:35;;;;;;;4.80;4.33;;;23.40;59.30;;;;;;5050445;28;20220;-70
2023/09/05 07:48:01;;;;;;;6.97;4.70;;;23.30;59.30;;;;;;5050439;28;20575;-70
2023/09/05 07:50:27;;;;;;;5.47;4.43;;;23.40;59.30;;;;;;5050271;28;20891;-68
2023/09/05 07:52:53;;;;;;;5.30;4.27;;;23.40;59.40;;;;;;5050429;28;20444;-69
2023/09/05 07:55:19;;;;;;;6.50;4.83;;;23.40;59.30;;;;;;5032344;28;20205;-69
2023/09/05 07:57:44;;;;;;;5.93;4.27;;;23.40;59.30;;;;;;5050228;28;20221;-70
2023/09/05 08:00:11;;;;;;;5.37;4.70;;;23.40;59.30;;;;;;5050307;28;20429;-69
2023/09/05 08:02:37;;;;;;;5.10;4.10;;;23.40;59.30;;;;;;5050173;28;20193;-69
2023/09/05 08:05:04;;;;;;;4.30;3.80;;;23.40;59.30;;;;;;5051637;28;20402;-70
2023/09/05 08:07:30;;;;;;;4.47;3.90;;;23.40;59.40;;;;;;5053520;28;20191;-69
2023/09/05 08:09:56;;;;;;;5.23;4.30;;;23.40;59.40;;;;;;5053736;28;20466;-69
2023/09/05 08:12:21;;;;;;;4.90;4.37;;;23.40;59.30;;;;;;5053076;28;20209;-68
2023/09/05 08:14:47;;;;;;;4.73;3.90;;;23.40;59.40;;;;;;5053845;28;20195;-70
2023/09/05 08:17:12;;;;;;;4.40;3.93;;;23.40;59.40;;;;;;5053439;28;21036;-68
2023/09/05 08:19:38;;;;;;;4.40;4.00;;;23.40;59.40;;;;;;5035368;28;20178;-69
2023/09/05 08:22:05;;;;;;;6.10;4.40;;;23.40;59.40;;;;;;5053289;28;20585;-69
2023/09/05 08:24:31;;;;;;;5.90;5.10;;;23.30;59.30;;;;;;5053560;28;20186;-68
2023/09/05 08:26:56;;;;;;;6.20;4.63;;;23.40;59.40;;;;;;5053048;28;20444;-70
2023/09/05 08:29:23;;;;;;;6.80;4.83;;;23.30;59.30;;;;;;5053687;28;20216;-69
2023/09/05 08:31:49;;;;;;;5.70;4.30;;;23.30;59.30;;;;;;5053765;28;20191;-68
2023/09/05 08:34:16;;;;;;;4.73;4.27;;;23.40;59.40;;;;;;5053820;28;21088;-69
2023/09/05 08:36:42;;;;;;;5.50;4.50;;;23.40;59.40;;;;;;5035907;28;20465;-69
2023/09/05 08:39:07;;;;;;;5.03;3.73;;;23.30;59.30;;;;;;5053448;28;20175;-69
2023/09/05 08:41:33;;;;;;;4.87;4.20;;;23.40;59.40;;;;;;5035438;28;20183;-69
2023/09/05 08:44:00;;;;;;;4.73;3.97;;;23.40;59.40;;;;;;5053267;28;20171;-70
2023/09/05 08:46:27;;;;;;;5.47;4.63;;;23.40;59.40;;;;;;5053210;28;20467;-68
2023/09/05 08:48:53;;;;;;;4.87;4.37;;;23.40;59.40;;;;;;5053236;28;20421;-69
2023/09/05 08:51:20;;;;;;;4.40;3.77;;;23.40;59.40;;;;;;5053196;28;20494;-67
2023/09/05 08:53:56;;;;;;;5.40;4.47;;;23.40;59.40;;;;;;5053160;28;20179;-69
2023/09/05 08:56:23;;;;;;;4.03;3.63;;;23.40;59.40;;;;;;5053134;28;20457;-68
2023/09/05 08:58:52;;;;;;;5.03;4.30;;;23.40;59.40;;;;;;5035222;28;20417;-68
2023/09/05 09:01:19;;;;;;;4.67;3.93;;;23.40;59.40;;;;;;5053021;28;20425;-69
2023/09/05 09:03:44;;;;;;;4.20;3.77;;;23.40;59.40;;;;;;5052917;28;20417;-69
2023/09/05 09:06:10;;;;;;;5.10;3.53;;;23.40;59.40;;;;;;5052582;28;20491;-69
2023/09/05 09:08:44;;;;;;;4.33;3.57;;;23.40;59.40;;;;;;5034535;28;20591;-67
2023/09/05 09:11:10;;;;;;;6.40;4.70;;;23.40;59.40;;;;;;5032880;28;20214;-69
2023/09/05 09:13:40;;;;;;;4.03;3.67;;;23.40;59.40;;;;;;5033226;28;20425;-68
2023/09/05 09:16:06;;;;;;;5.23;4.10;;;23.40;59.40;;;;;;5032233;28;21010;-69
2023/09/05 09:18:32;;;;;;;4.40;4.00;;;23.40;59.40;;;;;;5032633;28;20755;-67
2023/09/05 09:21:04;;;;;;;4.13;3.73;;;23.40;59.40;;;;;;5033077;28;20414;-69
2023/09/05 09:23:33;;;;;;;4.50;3.80;;;23.40;59.40;;;;;;5032787;28;20810;-70
2023/09/05 09:26:00;;;;;;;5.27;3.93;;;23.40;59.40;;;;;;5032693;28;20922;-69
2023/09/05 09:28:32;;;;;;;4.70;4.17;;;23.40;59.40;;;;;;5032706;28;20825;-68
2023/09/05 09:31:02;;;;;;;3.60;3.00;;;23.40;59.30;;;;;;5032684;28;20825;-68
2023/09/05 09:33:30;;;;;;;5.27;3.50;;;23.40;59.30;;;;;;5032145;28;20994;-69
2023/09/05 09:36:01;;;;;;;3.97;3.57;;;23.40;59.40;;;;;;5032198;28;20413;-70
2023/09/05 09:38:28;;;;;;;4.17;3.67;;;23.40;59.40;;;;;;5032698;28;20410;-70
2023/09/05 09:40:55;;;;;;;5.03;4.20;;;23.40;59.40;;;;;;5032299;28;20415;-69
2023/09/05 09:43:21;;;;;;;4.47;3.67;;;23.40;59.30;;;;;;5032097;28;20442;-69
2023/09/05 09:45:46;;;;;;;4.23;3.67;;;23.40;59.30;;;;;;5049999;28;20467;-69
2023/09/05 09:48:15;;;;;;;4.53;4.00;;;23.40;59.30;;;;;;5052069;28;20425;-69
2023/09/05 09:50:43;;;;;;;3.63;2.93;;;23.40;59.30;;;;;;5034139;28;20210;-69
2023/09/05 09:53:15;;;;;;;5.00;3.43;;;23.40;59.30;;;;;;5051985;28;20413;-69
2023/09/05 09:55:44;;;;;;;3.77;3.33;;;23.40;59.30;;;;;;5051181;28;20494;-69
2023/09/05 09:58:18;;;;;;;5.20;3.97;;;23.40;59.40;;;;;;5051815;28;20421;-69
2023/09/05 10:00:46;;;;;;;4.17;3.77;;;23.40;59.30;;;;;;5051977;28;20819;-70
2023/09/05 10:03:15;;;;;;;5.00;3.83;;;23.40;59.30;;;;;;5051829;28;20425;-69
2023/09/05 10:05:42;;;;;;;3.90;3.50;;;23.40;59.30;;;;;;5051759;28;20911;-70
2023/09/05 10:08:09;;;;;;;6.30;3.50;;;23.40;59.30;;;;;;5051765;28;20680;-68
2023/09/05 10:10:38;;;;;;;4.10;3.60;;;23.40;59.30;;;;;;5051904;28;20464;-69
2023/09/05 10:13:07;;;;;;;3.53;3.23;;;23.50;59.30;;;;;;5051933;28;20914;-68
2023/09/05 10:15:35;;;;;;;5.10;3.40;;;23.50;59.30;;;;;;5051583;28;20402;-68
2023/09/05 10:18:01;;;;;;;6.20;3.60;;;23.50;59.30;;;;;;5051464;28;20433;-69
2023/09/05 10:20:28;;;;;;;3.50;3.20;;;23.50;59.30;;;;;;5051521;28;20974;-70
2023/09/05 10:22:53;;;;;;;3.40;3.10;;;23.50;59.30;;;;;;5051483;28;20410;-69
2023/09/05 10:25:20;;;;;;;6.77;3.40;;;23.50;59.40;;;;;;5031994;28;20575;-69
2023/09/05 10:27:45;;;;;;;6.80;4.80;;;23.50;59.30;;;;;;5050324;28;20227;-69
2023/09/05 10:30:11;;;;;;;3.40;2.97;;;23.50;59.30;;;;;;5051186;28;20406;-69
2023/09/05 10:32:42;;;;;;;4.17;3.50;;;23.50;59.30;;;;;;5051187;28;20246;-69
2023/09/05 10:35:08;;;;;;;4.00;3.13;;;23.50;59.30;;;;;;5051230;28;20156;-69
2023/09/05 10:37:33;;;;;;;4.43;3.70;;;23.50;59.30;;;;;;5051162;28;20513;-69
2023/09/05 10:40:07;;;;;;;4.30;3.00;;;23.40;59.20;;;;;;5051160;28;20516;-68
2023/09/05 10:42:33;;;;;;;4.07;3.00;;;23.50;59.60;;;;;;5050932;28;20171;-70
2023/09/05 10:45:17;;;;;;;4.70;3.20;;;23.50;59.30;;;;;;5050988;28;20967;-69
2023/09/05 10:47:42;;;;;;;3.43;3.13;;;23.50;59.30;;;;;;5050722;28;20945;-67
2023/09/05 10:50:10;;;;;;;9.43;4.33;;;23.50;59.30;;;;;;5051057;28;20420;-70
2023/09/05 10:52:36;;;;;;;5.40;3.50;;;23.50;59.30;;;;;;5051017;28;20167;-70
2023/09/05 10:55:23;;;;;;;5.60;3.70;;;23.50;59.30;;;;;;5050921;28;20490;-70
2023/09/05 10:57:50;;;;;;;3.47;2.47;;;23.50;59.30;;;;;;5050913;28;20937;-69
2023/09/05 11:00:22;;;;;;;3.67;3.20;;;23.50;59.30;;;;;;5050913;28;20406;-68
2023/09/05 11:02:49;;;;;;;4.47;3.50;;;23.50;59.30;;;;;;5050812;28;20412;-70
2023/09/05 11:05:19;;;;;;;4.80;3.27;;;23.50;59.30;;;;;;5050573;28;20412;-68
2023/09/05 11:07:45;;;;;;;5.57;3.77;;;23.50;59.30;;;;;;5050800;28;21040;-69
2023/09/05 11:10:25;;;;;;;4.20;3.50;;;23.50;59.30;;;;;;5033001;28;20492;-70
2023/09/05 11:12:51;;;;;;;6.37;3.50;;;23.50;59.30;;;;;;5050943;28;20398;-70
2023/09/05 11:15:36;;;;;;;5.57;3.37;;;23.50;59.30;;;;;;5050547;28;20424;-69
2023/09/05 11:18:05;;;;;;;3.50;3.20;;;23.50;59.30;;;;;;5050797;28;20230;-70
2023/09/05 11:20:44;;;;;;;4.23;2.70;;;23.50;59.30;;;;;;5050754;28;20508;-70
2023/09/05 11:23:11;;;;;;;3.30;2.67;;;23.50;59.30;;;;;;5050708;28;20466;-70
2023/09/05 11:25:53;;;;;;;3.87;3.40;;;23.50;59.30;;;;;;5050530;28;20914;-70
2023/09/05 11:28:22;;;;;;;6.53;3.40;;;23.50;59.40;;;;;;5050514;28;20440;-68
2023/09/05 11:30:49;;;;;;;3.83;2.63;;;23.50;59.40;;;;;;5050324;28;20954;-69
2023/09/05 11:33:16;;;;;;;4.30;3.43;;;23.50;59.30;;;;;;5050688;28;20420;-70
2023/09/05 11:35:45;;;;;;;3.37;3.07;;;23.50;59.40;;;;;;5050253;28;20431;-69
2023/09/05 11:38:12;;;;;;;3.83;3.10;;;23.50;59.40;;;;;;5050669;28;20410;-69
2023/09/05 11:40:41;;;;;;;5.53;3.47;;;23.50;59.40;;;;;;5053522;28;20448;-69
2023/09/05 11:43:11;;;;;;;3.90;3.50;;;23.50;59.40;;;;;;5054535;28;20405;-69
2023/09/05 11:45:37;;;;;;;6.30;3.07;;;23.50;59.40;;;;;;5054536;28;20428;-69
2023/09/05 11:48:11;;;;;;;5.93;3.07;;;23.50;59.40;;;;;;5054272;28;20432;-70
2023/09/05 11:50:42;;;;;;;2.90;2.40;;;23.50;59.40;;;;;;5054355;28;20814;-69
2023/09/05 11:53:10;;;;;;;4.73;3.20;;;23.50;59.40;;;;;;5054671;28;20398;-69
2023/09/05 11:55:36;;;;;;;4.03;3.07;;;23.50;59.40;;;;;;5054385;28;20921;-69
2023/09/05 11:58:02;;;;;;;3.43;3.00;;;23.50;59.40;;;;;;5053964;28;20961;-70
2023/09/05 12:00:28;;;;;;;3.57;3.07;;;23.50;59.30;;;;;;5054171;28;20425;-69
2023/09/05 12:02:56;;;;;;;3.00;2.70;;;23.50;59.30;;;;;;5054160;28;20413;-69
2023/09/05 12:05:22;;;;;;;3.07;2.73;;;23.50;59.30;;;;;;5036162;28;20459;-70
2023/09/05 12:07:55;;;;;;;4.13;2.57;;;23.50;59.40;;;;;;5054275;28;20429;-70
2023/09/05 12:10:24;;;;;;;2.93;2.60;;;23.50;59.40;;;;;;5035851;28;20428;-69
2023/09/05 12:12:58;;;;;;;4.27;2.57;;;23.50;59.40;;;;;;5053998;28;20424;-69
2023/09/05 12:15:31;;;;;;;3.50;2.93;;;23.50;59.30;;;;;;5054072;28;20386;-69
2023/09/05 12:18:05;;;;;;;4.23;3.67;;;23.50;59.30;;;;;;5035822;28;20436;-69
2023/09/05 12:20:34;;;;;;;3.13;2.67;;;23.50;59.40;;;;;;5053931;28;20743;-68
2023/09/05 12:23:05;;;;;;;3.83;3.10;;;23.50;59.30;;;;;;5053843;28;20406;-69
2023/09/05 12:25:31;;;;;;;4.17;2.67;;;23.50;59.30;;;;;;5053583;28;20425;-69
2023/09/05 12:28:15;;;;;;;3.50;2.73;;;23.60;59.40;;;;;;5053613;28;20463;-70
2023/09/05 12:30:41;;;;;;;3.20;2.90;;;23.60;59.40;;;;;;5053335;28;20225;-68
2023/09/05 12:33:07;;;;;;;3.20;2.80;;;23.50;59.90;;;;;;5053680;28;20402;-69
2023/09/05 12:35:33;;;;;;;4.93;2.70;;;23.50;59.30;;;;;;5053615;28;20171;-70
2023/09/05 12:38:12;;;;;;;3.50;3.20;;;23.60;59.40;;;;;;5053747;28;20562;-69
2023/09/05 12:40:43;;;;;;;3.20;2.77;;;23.60;59.40;;;;;;5053791;28;20921;-70
2023/09/05 12:43:09;;;;;;;4.03;3.00;;;23.50;59.40;;;;;;5035486;28;20413;-69
2023/09/05 12:45:34;;;;;;;2.90;2.60;;;23.60;59.40;;;;;;5053404;28;20932;-70